Time;durP1;ratioP1;P1;durP2;ratioP2;P2;SDS_P1;SDS_P2;PMS_P1;PMS_P2;Temp;Humidity;BMP_temperature;BMP_pressure;BME280_temperature;BME280_humidity;BME280_pressure;Samples;Min_cycle;Max_cycle;Signal;HPM_P1;HPM_P2
2022/04/23 00:00:19;;;;;;;;;;;;;;;10.57;79.05;100506.22;5116078;28;19923;-34
2022/04/23 00:02:45;;;;;;;;;;;;;;;10.55;78.66;100507.53;5115194;28;19918;-34
2022/04/23 00:05:10;;;;;;;;;;;;;;;10.53;78.97;100507.75;5116407;28;20336;-34
2022/04/23 00:07:35;;;;;;;;;;;;;;;10.53;78.94;100496.94;5114638;28;20366;-34
2022/04/23 00:10:01;;;;;;;;;;;;;;;10.48;78.68;100502.22;5115764;28;20217;-34
2022/04/23 00:12:26;;;;;;;;;;;;;;;10.46;79.64;100507.06;5115352;28;19912;-34
2022/04/23 00:14:53;;;;;;;;;;;;;;;10.47;78.37;100510.59;5115282;28;19912;-34
2022/04/23 00:17:18;;;;;;;;;;;;;;;10.48;78.63;100509.53;5115020;28;19962;-34
2022/04/23 00:19:46;;;;;;;;;;;;;;;10.44;79.55;100509.19;5114849;28;19919;-34
2022/04/23 00:22:12;;;;;;;;;;;;;;;10.45;78.91;100504.63;5115248;28;19915;-34
2022/04/23 00:24:37;;;;;;;;;;;;;;;10.41;80.12;100508.84;5115214;28;20304;-34
2022/04/23 00:27:03;;;;;;;;;;;;;;;10.41;79.48;100508.84;5115887;28;19919;-34
2022/04/23 00:29:29;;;;;;;;;;;;;;;10.34;80.27;100500.84;5115212;28;19912;-34
2022/04/23 00:31:54;;;;;;;;;;;;;;;10.37;78.64;100503.09;5114970;28;19919;-34
2022/04/23 00:34:19;;;;;;;;;;;;;;;10.39;79.19;100505.53;5114588;28;19969;-34
2022/04/23 00:36:44;;;;;;;;;;;;;;;10.37;79.78;100500.38;5115183;28;19957;-34
2022/04/23 00:39:09;;;;;;;;;;;;;;;10.39;78.83;100502.84;5113901;28;20014;-34
2022/04/23 00:41:45;;;;;;;;;;;;;;;10.32;80.16;100511.91;5114508;28;19922;-34
2022/04/23 00:44:10;;;;;;;;;;;;;;;10.28;80.51;100504.50;5114763;28;20002;-34
2022/04/23 00:46:35;;;;;;;;;;;;;;;10.27;79.98;100503.69;5114712;28;19943;-34
2022/04/23 00:49:02;;;;;;;;;;;;;;;10.24;80.59;100504.16;5114847;28;19912;-34
2022/04/23 00:51:28;;;;;;;;;;;;;;;10.19;80.96;100509.41;5114875;28;19965;-34
2022/04/23 00:53:54;;;;;;;;;;;;;;;10.17;81.46;100505.31;5115266;28;19916;-34
2022/04/23 00:56:19;;;;;;;;;;;;;;;10.22;81.18;100510.84;5114852;28;20014;-34
2022/04/23 00:58:45;;;;;;;;;;;;;;;10.21;81.54;100514.59;5114114;28;19919;-34
2022/04/23 01:01:10;;;;;;;;;;;;;;;10.16;81.86;100511.78;5114433;28;19912;-34
2022/04/23 01:03:36;;;;;;;;;;;;;;;10.19;80.99;100512.13;5114299;28;20279;-34
2022/04/23 01:06:02;;;;;;;;;;;;;;;10.20;81.00;100507.53;5114577;28;19911;-34
2022/04/23 01:08:27;;;;;;;;;;;;;;;10.17;81.39;100503.44;5114611;28;19930;-34
2022/04/23 01:10:52;;;;;;;;;;;;;;;10.17;80.91;100508.03;5115148;28;19912;-34
2022/04/23 01:13:17;;;;;;;;;;;;;;;10.11;82.03;100515.19;5113010;28;19911;-34
2022/04/23 01:16:02;;;;;;;;;;;;;;;10.00;83.19;100514.16;5114433;28;20352;-34
2022/04/23 01:18:28;;;;;;;;;;;;;;;10.02;82.35;100511.19;5113720;28;19911;-33
2022/04/23 01:20:54;;;;;;;;;;;;;;;9.97;83.39;100509.19;5114592;28;19918;-33
2022/04/23 01:23:19;;;;;;;;;;;;;;;10.00;82.42;100513.31;5114975;28;19915;-34
2022/04/23 01:25:45;;;;;;;;;;;;;;;9.92;83.71;100509.09;5114839;28;19916;-34
2022/04/23 01:28:11;;;;;;;;;;;;;;;9.90;83.18;100507.66;5114291;28;19915;-34
2022/04/23 01:30:36;;;;;;;;;;;;;;;9.92;83.79;100506.38;5114544;28;19912;-34
2022/04/23 01:33:01;;;;;;;;;;;;;;;9.91;83.69;100507.44;5113624;28;20332;-34
2022/04/23 01:35:27;;;;;;;;;;;;;;;9.93;82.93;100512.59;5114009;28;19911;-34
2022/04/23 01:37:52;;;;;;;;;;;;;;;9.90;83.60;100510.38;5113674;28;20326;-34
2022/04/23 01:40:17;;;;;;;;;;;;;;;9.86;84.11;100510.03;5113901;28;20288;-34
2022/04/23 01:42:43;;;;;;;;;;;;;;;9.88;83.40;100512.50;5113370;28;20008;-34
2022/04/23 01:45:08;;;;;;;;;;;;;;;9.89;83.84;100504.16;5113924;28;20369;-34
2022/04/23 01:47:34;;;;;;;;;;;;;;;9.94;82.41;100520.47;5114602;28;19915;-34
2022/04/23 01:49:59;;;;;;;;;;;;;;;9.88;83.44;100512.50;5115314;28;20014;-33
2022/04/23 01:52:24;;;;;;;;;;;;;;;9.82;84.68;100516.94;5118097;28;19919;-34
2022/04/23 01:54:49;;;;;;;;;;;;;;;9.76;84.99;100523.25;5118006;28;19916;-34
2022/04/23 01:57:14;;;;;;;;;;;;;;;9.75;84.82;100517.03;5118038;28;19912;-34
2022/04/23 01:59:40;;;;;;;;;;;;;;;9.69;85.57;100522.56;5118746;28;19912;-34
2022/04/23 02:02:05;;;;;;;;;;;;;;;9.70;85.13;100513.41;5117931;28;19911;-34
2022/04/23 02:04:30;;;;;;;;;;;;;;;9.71;85.49;100520.44;5118439;28;19912;-34
2022/04/23 02:06:55;;;;;;;;;;;;;;;9.65;85.59;100516.81;5118467;28;19911;-34
2022/04/23 02:09:20;;;;;;;;;;;;;;;9.62;86.37;100521.88;5118297;28;19935;-34
2022/04/23 02:11:46;;;;;;;;;;;;;;;9.61;85.93;100526.41;5118031;28;20004;-33
2022/04/23 02:14:11;;;;;;;;;;;;;;;9.62;86.39;100521.88;5117397;28;19912;-34
2022/04/23 02:16:36;;;;;;;;;;;;;;;9.55;87.24;100519.25;5117986;28;19912;-33
2022/04/23 02:19:03;;;;;;;;;;;;;;;9.60;86.35;100526.66;5117587;28;19965;-33
2022/04/23 02:21:29;;;;;;;;;;;;;;;9.57;86.82;100524.44;5118264;27;19918;-33
2022/04/23 02:23:54;;;;;;;;;;;;;;;9.53;87.25;100524.06;5117235;28;20367;-34
2022/04/23 02:26:20;;;;;;;;;;;;;;;9.51;87.49;100521.59;5116825;28;19915;-34
2022/04/23 02:28:47;;;;;;;;;;;;;;;9.52;86.87;100525.94;5117328;28;19912;-34
2022/04/23 02:31:12;;;;;;;;;;;;;;;9.51;86.73;100529.69;5117008;28;19920;-33
2022/04/23 02:33:37;;;;;;;;;;;;;;;9.57;86.56;100533.34;5117012;28;19972;-34
2022/04/23 02:36:02;;;;;;;;;;;;;;;9.48;87.92;100521.25;5117597;27;19915;-34
2022/04/23 02:38:28;;;;;;;;;;;;;;;9.45;87.76;100532.50;5117409;28;19972;-34
2022/04/23 02:40:53;;;;;;;;;;;;;;;9.44;87.39;100526.28;5116895;28;19947;-34
2022/04/23 02:43:19;;;;;;;;;;;;;;;9.41;88.57;100521.34;5117017;28;19938;-34
2022/04/23 02:45:45;;;;;;;;;;;;;;;9.39;88.60;100520.75;5117116;28;20018;-34
2022/04/23 02:48:11;;;;;;;;;;;;;;;9.39;88.13;100525.31;5117034;28;20008;-34
2022/04/23 02:50:37;;;;;;;;;;;;;;;9.36;88.56;100523.91;5116664;28;19911;-34
2022/04/23 02:53:03;;;;;;;;;;;;;;;9.35;88.93;100527.66;5116941;28;20347;-34
2022/04/23 02:55:30;;;;;;;;;;;;;;;9.29;88.64;100525.88;5117243;28;19912;-34
2022/04/23 02:57:57;;;;;;;;;;;;;;;9.32;88.63;100517.34;5116856;28;19957;-34
2022/04/23 03:00:22;;;;;;;;;;;;;;;9.31;89.12;100520.25;5117212;28;19918;-34
2022/04/23 03:02:47;;;;;;;;;;;;;;;9.28;88.51;100508.88;5115781;28;20002;-34
2022/04/23 03:05:16;;;;;;;;;;;;;;;9.28;88.95;100510.75;5116996;28;20259;-34
2022/04/23 03:07:42;;;;;;;;;;;;;;;9.25;89.55;100511.22;5116640;28;19912;-34
2022/04/23 03:10:09;;;;;;;;;;;;;;;9.25;89.75;100512.03;5117145;28;19931;-34
2022/04/23 03:12:36;;;;;;;;;;;;;;;9.23;90.12;100514.16;5116525;27;20283;-34
2022/04/23 03:15:03;;;;;;;;;;;;;;;9.22;89.96;100511.66;5116557;28;19919;-33
2022/04/23 03:17:28;;;;;;;;;;;;;;;9.17;89.85;100514.22;5116413;28;19912;-33
2022/04/23 03:19:53;;;;;;;;;;;;;;;9.22;88.82;100517.06;5116329;28;20065;-34
2022/04/23 03:22:20;;;;;;;;;;;;;;;9.23;89.14;100513.31;5116570;28;19922;-33
2022/04/23 03:24:46;;;;;;;;;;;;;;;9.23;89.11;100502.53;5115856;28;19918;-34
2022/04/23 03:27:11;;;;;;;;;;;;;;;9.25;89.37;100505.81;5116237;28;19912;-34
2022/04/23 03:29:36;;;;;;;;;;;;;;;9.25;89.13;100501.22;5116555;28;19912;-34
2022/04/23 03:32:02;;;;;;;;;;;;;;;9.22;89.62;100501.72;5115938;28;19954;-34
2022/04/23 03:34:27;;;;;;;;;;;;;;;9.24;89.33;100504.16;5116135;28;20082;-33
2022/04/23 03:36:53;;;;;;;;;;;;;;;9.22;90.07;100512.50;5114958;28;20255;-33
2022/04/23 03:39:19;;;;;;;;;;;;;;;9.24;89.33;100504.16;5116048;28;19912;-33
2022/04/23 03:41:44;;;;;;;;;;;;;;;9.24;89.84;100499.59;5116501;28;19916;-34
2022/04/23 03:44:09;;;;;;;;;;;;;;;9.22;90.24;100498.16;5115670;28;20367;-34
2022/04/23 03:46:34;;;;;;;;;;;;;;;9.14;91.22;100496.63;5116181;28;19911;-33
2022/04/23 03:49:00;;;;;;;;;;;;;;;9.15;90.73;100494.75;5115551;28;19918;-33
2022/04/23 03:51:25;;;;;;;;;;;;;;;9.17;90.81;100495.34;5115894;28;19912;-33
2022/04/23 03:53:50;;;;;;;;;;;;;;;9.20;90.20;100492.19;5114960;28;19912;-34
2022/04/23 03:56:15;;;;;;;;;;;;;;;9.14;91.40;100493.94;5116195;28;19919;-34
2022/04/23 03:58:41;;;;;;;;;;;;;;;9.20;90.44;100486.78;5116150;28;19911;-33
2022/04/23 04:01:07;;;;;;;;;;;;;;;9.19;90.69;100491.38;5116427;28;19994;-34
2022/04/23 04:03:32;;;;;;;;;;;;;;;9.20;90.87;100492.19;5114456;28;19955;-34
2022/04/23 04:05:57;;;;;;;;;;;;;;;9.21;91.45;100491.13;5116303;28;20014;-33
2022/04/23 04:08:22;;;;;;;;;;;;;;;9.14;91.61;100482.31;5115410;28;19912;-34
2022/04/23 04:10:47;;;;;;;;;;;;;;;9.15;91.11;100475.88;5115581;28;19912;-33
2022/04/23 04:13:14;;;;;;;;;;;;;;;9.14;91.33;100482.31;5115089;28;19941;-34
2022/04/23 04:15:41;;;;;;;;;;;;;;;9.11;91.74;100482.78;5115549;28;20259;-34
2022/04/23 04:18:06;;;;;;;;;;;;;;;9.12;91.75;100481.72;5115452;28;20369;-34
2022/04/23 04:20:32;;;;;;;;;;;;;;;9.15;91.64;100483.97;5115036;28;19912;-34
2022/04/23 04:22:57;;;;;;;;;;;;;;;9.18;91.63;100480.81;5115534;27;19967;-34
2022/04/23 04:25:22;;;;;;;;;;;;;;;9.20;91.35;100479.53;5115171;28;19912;-34
2022/04/23 04:27:48;;;;;;;;;;;;;;;9.15;91.76;100478.56;5115115;28;20045;-33
2022/04/23 04:30:14;;;;;;;;;;;;;;;9.16;91.36;100474.81;5115248;28;19912;-33
2022/04/23 04:32:41;;;;;;;;;;;;;;;9.13;92.28;100469.91;5114899;28;20304;-33
2022/04/23 04:35:06;;;;;;;;;;;;;;;9.06;92.93;100472.69;5114650;28;19953;-33
2022/04/23 04:37:32;;;;;;;;;;;;;;;9.12;92.00;100470.94;5114845;28;20012;-34
2022/04/23 04:39:57;;;;;;;;;;;;;;;9.12;92.13;100473.63;5115292;28;19911;-34
2022/04/23 04:42:22;;;;;;;;;;;;;;;9.14;91.58;100472.34;5113551;28;20344;-34
2022/04/23 04:44:49;;;;;;;;;;;;;;;9.15;91.54;100479.38;5115307;28;19912;-33
2022/04/23 04:47:14;;;;;;;;;;;;;;;9.15;91.89;100476.69;5114752;28;19911;-34
2022/04/23 04:49:40;;;;;;;;;;;;;;;9.16;92.07;100477.50;5114408;28;19958;-34
2022/04/23 04:52:05;;;;;;;;;;;;;;;9.15;91.49;100474.00;5115186;28;19915;-33
2022/04/23 04:54:30;;;;;;;;;;;;;;;9.18;92.09;100480.81;5114594;28;19912;-33
2022/04/23 04:56:59;;;;;;;;;;;;;;;9.17;92.33;100481.84;5114851;28;19918;-33
2022/04/23 04:59:24;;;;;;;;;;;;;;;9.20;91.41;100489.50;5114196;28;19911;-34
2022/04/23 05:01:50;;;;;;;;;;;;;;;9.16;92.59;100485.59;5114699;28;20019;-34
2022/04/23 05:04:15;;;;;;;;;;;;;;;9.14;92.31;100487.72;5114347;28;20042;-34
2022/04/23 05:06:41;;;;;;;;;;;;;;;9.22;91.43;100495.47;5114732;28;19920;-34
2022/04/23 05:09:06;;;;;;;;;;;;;;;9.26;91.46;100493.97;5114281;28;19912;-34
2022/04/23 05:11:31;;;;;;;;;;;;;;;9.28;91.72;100497.25;5114320;28;19912;-34
2022/04/23 05:13:56;;;;;;;;;;;;;;;9.25;92.18;100500.41;5114522;28;20010;-34
2022/04/23 05:16:22;;;;;;;;;;;;;;;9.29;91.86;100501.59;5114932;28;19955;-34
2022/04/23 05:18:47;;;;;;;;;;;;;;;9.36;92.09;100499.63;5113155;28;20335;-34
2022/04/23 05:21:12;;;;;;;;;;;;;;;9.41;91.84;100499.75;5114761;28;19918;-34
2022/04/23 05:23:37;;;;;;;;;;;;;;;9.47;91.67;100490.75;5114952;28;19919;-34
2022/04/23 05:26:03;;;;;;;;;;;;;;;9.51;90.75;100488.38;5113314;28;20031;-34
2022/04/23 05:28:29;;;;;;;;;;;;;;;9.50;90.91;100487.56;5114087;28;19912;-34
2022/04/23 05:30:54;;;;;;;;;;;;;;;9.61;90.66;100495.91;5114300;28;19919;-34
2022/04/23 05:33:19;;;;;;;;;;;;;;;9.62;91.18;100482.19;5113733;28;19969;-34
2022/04/23 05:35:44;;;;;;;;;;;;;;;9.67;90.65;100489.59;5114584;28;20312;-34
2022/04/23 05:38:09;;;;;;;;;;;;;;;9.73;90.65;100491.34;5114000;28;19911;-34
2022/04/23 05:40:35;;;;;;;;;;;;;;;9.77;90.56;100489.84;5114243;28;19919;-34
2022/04/23 05:43:00;;;;;;;;;;;;;;;9.86;90.10;100495.69;5114107;28;20263;-34
2022/04/23 05:45:26;;;;;;;;;;;;;;;9.88;89.95;100491.69;5113960;28;19918;-33
2022/04/23 05:47:51;;;;;;;;;;;;;;;9.94;89.42;100493.47;5114158;28;20363;-34
2022/04/23 05:50:17;;;;;;;;;;;;;;;9.94;89.58;100488.06;5114140;28;19957;-34
2022/04/23 05:52:42;;;;;;;;;;;;;;;9.99;89.07;100493.56;5114249;28;20356;-34
2022/04/23 05:55:08;;;;;;;;;;;;;;;10.03;89.29;100486.66;5113022;28;20363;-34
2022/04/23 05:57:33;;;;;;;;;;;;;;;10.09;88.81;100494.84;5113122;28;20308;-34
2022/04/23 05:59:59;;;;;;;;;;;;;;;10.09;88.21;100492.97;5113280;28;20015;-34
2022/04/23 06:02:24;;;;;;;;;;;;;;;10.15;88.81;100494.75;5113625;28;19915;-34
2022/04/23 06:04:49;;;;;;;;;;;;;;;10.10;88.76;100497.31;5113499;28;19922;-34
2022/04/23 06:07:15;;;;;;;;;;;;;;;10.22;87.72;100486.50;5113267;28;19977;-34
2022/04/23 06:09:40;;;;;;;;;;;;;;;10.29;88.20;100479.13;5113992;28;19912;-34
2022/04/23 06:12:06;;;;;;;;;;;;;;;10.30;87.93;100480.78;5114423;28;19936;-34
2022/04/23 06:14:31;;;;;;;;;;;;;;;10.31;87.42;100477.03;5113775;28;19911;-34
2022/04/23 06:16:56;;;;;;;;;;;;;;;10.36;87.38;100484.41;5113270;28;19957;-34
2022/04/23 06:19:21;;;;;;;;;;;;;;;10.46;86.89;100480.03;5113241;28;19919;-34
2022/04/23 06:21:47;;;;;;;;;;;;;;;10.58;86.33;100478.09;5112980;28;19922;-34
2022/04/23 06:24:12;;;;;;;;;;;;;;;10.68;86.24;100471.25;5113058;28;19912;-34
2022/04/23 06:26:38;;;;;;;;;;;;;;;10.74;86.11;100475.72;5113519;28;19922;-34
2022/04/23 06:29:03;;;;;;;;;;;;;;;10.74;85.00;100475.72;5113251;28;19918;-34
2022/04/23 06:31:28;;;;;;;;;;;;;;;10.81;84.91;100474.50;5113432;28;19911;-34
2022/04/23 06:33:53;;;;;;;;;;;;;;;10.88;84.89;100487.06;5113188;28;20015;-34
2022/04/23 06:36:18;;;;;;;;;;;;;;;10.93;84.79;100484.44;5114883;27;20036;-34
2022/04/23 06:38:44;;;;;;;;;;;;;;;10.92;84.36;100478.22;5117256;28;20346;-34
2022/04/23 06:41:09;;;;;;;;;;;;;;;11.05;84.44;100483.34;5117201;27;19915;-34
2022/04/23 06:43:34;;;;;;;;;;;;;;;11.07;83.77;100488.50;5116992;28;19938;-34
2022/04/23 06:45:59;;;;;;;;;;;;;;;11.08;83.67;100480.16;5117312;28;19965;-34
2022/04/23 06:48:24;;;;;;;;;;;;;;;11.20;83.64;100481.97;5116528;28;19919;-34
2022/04/23 06:50:50;;;;;;;;;;;;;;;11.31;83.35;100481.91;5116707;28;19934;-34
2022/04/23 06:53:15;;;;;;;;;;;;;;;11.40;83.53;100485.03;5116798;28;19912;-34
2022/04/23 06:55:40;;;;;;;;;;;;;;;11.42;82.20;100482.91;5116769;28;19957;-35
2022/04/23 06:58:05;;;;;;;;;;;;;;;11.37;81.56;100474.72;5116369;28;19918;-34
2022/04/23 07:00:31;;;;;;;;;;;;;;;11.45;81.94;100470.75;5116471;28;19979;-34
2022/04/23 07:02:56;;;;;;;;;;;;;;;11.51;80.85;100473.28;5115031;28;19958;-34
2022/04/23 07:05:21;;;;;;;;;;;;;;;11.61;81.54;100464.50;5116749;28;20359;-34
2022/04/23 07:07:59;;;;;;;;;;;;;;;11.67;81.07;100462.72;5116676;28;19919;-34
2022/04/23 07:10:26;;;;;;;;;;;;;;;11.78;80.72;100462.63;5116594;28;19912;-34
2022/04/23 07:12:52;;;;;;;;;;;;;;;11.87;80.38;100465.78;5116463;28;19950;-34
2022/04/23 07:15:17;;;;;;;;;;;;;;;12.00;80.11;100462.69;5116772;28;19972;-35
2022/04/23 07:17:43;;;;;;;;;;;;;;;12.03;78.38;100464.09;5116414;28;20402;-34
2022/04/23 07:20:08;;;;;;;;;;;;;;;12.10;78.66;100454.72;5116316;28;20267;-34
2022/04/23 07:22:33;;;;;;;;;;;;;;;12.08;78.20;100459.56;5116159;28;20339;-34
2022/04/23 07:24:58;;;;;;;;;;;;;;;12.13;77.61;100458.00;5116478;28;20006;-34
2022/04/23 07:27:24;;;;;;;;;;;;;;;12.25;77.18;100455.97;5115812;28;20014;-34
2022/04/23 07:29:50;;;;;;;;;;;;;;;12.35;77.55;100453.41;5116922;28;20010;-34
2022/04/23 07:32:15;;;;;;;;;;;;;;;12.32;76.81;100449.31;5116105;28;20010;-35
2022/04/23 07:37:31;;;;;;;;;;;;;;;12.56;75.52;100451.75;5115996;28;20386;-34
2022/04/23 07:40:00;;;;;;;;;;;;;;;12.65;76.21;100452.13;5115597;28;19916;-35
2022/04/23 07:42:26;;;;;;;;;;;;;;;12.78;75.85;100451.72;5114840;28;19958;-35
2022/04/23 07:44:51;;;;;;;;;;;;;;;12.80;75.04;100444.16;5116160;28;19941;-34
2022/04/23 07:47:16;;;;;;;;;;;;;;;12.86;74.26;100443.13;5115703;28;20306;-35
2022/04/23 07:49:42;;;;;;;;;;;;;;;12.88;73.15;100444.53;5115714;28;20320;-35
2022/04/23 07:52:07;;;;;;;;;;;;;;;12.98;73.20;100440.25;5116415;27;19958;-35
2022/04/23 07:54:32;;;;;;;;;;;;;;;13.06;73.20;100443.34;5116537;28;20236;-35
2022/04/23 07:56:58;;;;;;;;;;;;;;;13.14;72.96;100434.72;5115762;28;19960;-35
2022/04/23 07:59:24;;;;;;;;;;;;;;;13.20;71.08;100430.16;5115087;28;20383;-34
2022/04/23 08:01:50;;;;;;;;;;;;;;;13.22;71.08;100435.34;5115306;28;19979;-34
2022/04/23 08:04:15;;;;;;;;;;;;;;;13.26;71.38;100437.28;5115894;28;19915;-34
2022/04/23 08:06:40;;;;;;;;;;;;;;;13.36;71.48;100431.13;5115706;28;20352;-34
2022/04/23 08:09:05;;;;;;;;;;;;;;;13.47;70.73;100426.59;5115345;28;19915;-34
2022/04/23 08:11:31;;;;;;;;;;;;;;;13.56;70.89;100431.28;5115152;27;19957;-34
2022/04/23 08:13:57;;;;;;;;;;;;;;;13.62;69.96;100424.81;5116425;28;19911;-34
2022/04/23 08:16:22;;;;;;;;;;;;;;;13.58;70.16;100415.56;5115610;28;19934;-34
2022/04/23 08:18:47;;;;;;;;;;;;;;;13.71;70.17;100416.16;5115317;28;20347;-34
2022/04/23 08:21:13;;;;;;;;;;;;;;;13.80;69.91;100426.28;5115538;28;19912;-35
2022/04/23 08:23:38;;;;;;;;;;;;;;;13.91;68.90;100416.31;5114303;28;20348;-34
2022/04/23 08:26:05;;;;;;;;;;;;;;;13.98;69.47;100400.56;5114394;28;19915;-34
2022/04/23 08:31:14;;;;;;;;;;;;;;;14.18;68.38;100408.00;5102140;28;19976;-34
2022/04/23 08:33:58;;;;;;;;;;;;;;;14.36;67.65;100399.38;5114758;28;19911;-34
2022/04/23 08:36:23;;;;;;;;;;;;;;;14.48;66.73;100399.16;5114090;28;19916;-35
2022/04/23 08:38:49;;;;;;;;;;;;;;;14.51;65.76;100401.34;5114615;28;20279;-34
2022/04/23 08:41:14;;;;;;;;;;;;;;;14.54;66.02;100402.72;5114358;28;19923;-34
2022/04/23 08:43:42;;;;;;;;;;;;;;;14.40;65.43;100402.38;5114337;28;19927;-34
2022/04/23 08:46:09;;;;;;;;;;;;;;;14.44;66.01;100400.75;5114843;28;19950;-34
2022/04/23 08:48:36;;;;;;;;;;;;;;;14.38;65.53;100408.06;5113605;28;19915;-34
2022/04/23 08:51:02;;;;;;;;;;;;;;;14.44;65.79;100403.47;5115044;28;19912;-34
2022/04/23 08:53:27;;;;;;;;;;;;;;;14.47;66.62;100413.81;5114622;28;19919;-34
2022/04/23 08:55:53;;;;;;;;;;;;;;;14.42;65.03;100422.78;5113997;28;20352;-34
2022/04/23 08:58:19;;;;;;;;;;;;;;;14.51;64.67;100420.41;5114539;28;19955;-34
2022/04/23 09:00:44;;;;;;;;;;;;;;;14.67;65.59;100419.34;5113877;28;20223;-34
2022/04/23 09:03:13;;;;;;;;;;;;;;;14.88;65.56;100419.38;5114368;28;19918;-34
2022/04/23 09:05:38;;;;;;;;;;;;;;;14.89;64.12;100412.88;5115201;28;20274;-34
2022/04/23 09:08:05;;;;;;;;;;;;;;;14.99;63.49;100406.63;5114250;28;19911;-34
2022/04/23 09:10:46;;;;;;;;;;;;;;;15.11;62.99;100409.91;5115114;28;20309;-34
2022/04/23 09:13:24;;;;;;;;;;;;;;;15.17;62.50;100411.53;5114286;28;19912;-34
2022/04/23 09:24:14;;;;;;;;;;;;;;;15.47;61.86;100418.91;5092103;28;19923;-34
2022/04/23 09:26:40;;;;;;;;;;;;;;;15.52;62.60;100410.72;5092204;28;20267;-34
2022/04/23 09:29:12;;;;;;;;;;;;;;;15.56;62.51;100411.78;5091340;28;19912;-34
2022/04/23 09:31:37;;;;;;;;;;;;;;;15.68;62.12;100417.00;5091503;28;19912;-34
2022/04/23 09:34:13;;;;;;;;;;;;;;;15.74;62.35;100424.06;5091069;28;20011;-34
2022/04/23 09:36:55;;;;;;;;;;;;;;;15.92;62.25;100431.66;5091469;28;20006;-34
2022/04/23 09:39:35;;;;;;;;;;;;;;;16.01;60.57;100429.19;5091333;28;19912;-34
2022/04/23 09:42:10;;;;;;;;;;;;;;;15.75;60.51;100422.16;5091337;28;20306;-34
2022/04/23 09:44:36;;;;;;;;;;;;;;;15.86;60.78;100421.88;5091173;28;19912;-34
2022/04/23 09:47:01;;;;;;;;;;;;;;;15.96;60.92;100419.13;5091198;28;19934;-34
2022/04/23 09:49:26;;;;;;;;;;;;;;;16.19;61.36;100417.66;5091290;28;19912;-34
2022/04/23 09:52:17;;;;;;;;;;;;;;;16.32;59.96;100415.44;5091126;28;19965;-34
2022/04/23 09:54:43;;;;;;;;;;;;;;;16.39;60.23;100421.41;5085983;28;20368;-34
2022/04/23 09:57:08;;;;;;;;;;;;;;;16.23;59.17;100423.38;5091610;28;19919;-35
2022/04/23 09:59:34;;;;;;;;;;;;;;;16.40;59.82;100418.41;5091243;28;19957;-34
2022/04/23 10:01:59;;;;;;;;;;;;;;;16.14;59.28;100420.41;5108804;28;19922;-34
2022/04/23 10:04:25;;;;;;;;;;;;;;;16.24;59.61;100408.63;5113653;28;20387;-34
2022/04/23 10:06:51;;;;;;;;;;;;;;;16.23;59.72;100410.56;5114182;28;19912;-34
2022/04/23 10:09:18;;;;;;;;;;;;;;;15.91;59.14;100410.13;5113416;28;19911;-34
2022/04/23 10:11:44;;;;;;;;;;;;;;;15.92;59.45;100419.94;5116626;28;19922;-34
2022/04/23 10:14:11;;;;;;;;;;;;;;;15.82;59.97;100411.78;5117451;28;19915;-34
2022/04/23 10:16:38;;;;;;;;;;;;;;;15.78;60.45;100411.53;5117707;28;19911;-34
2022/04/23 10:19:03;;;;;;;;;;;;;;;15.95;61.65;100403.00;5117607;28;20013;-34
2022/04/23 10:21:39;;;;;;;;;;;;;;;16.19;59.52;100406.75;5117414;28;19915;-33
2022/04/23 10:24:13;;;;;;;;;;;;;;;16.33;58.83;100404.22;5117433;28;19912;-34
2022/04/23 10:26:53;;;;;;;;;;;;;;;16.55;60.22;100397.59;5117262;28;19932;-34
2022/04/23 10:29:20;;;;;;;;;;;;;;;16.76;59.05;100395.59;5117118;28;19912;-34
2022/04/23 10:32:05;;;;;;;;;;;;;;;16.95;57.19;100374.69;5117727;27;20318;-35
2022/04/23 10:34:31;;;;;;;;;;;;;;;17.08;56.96;100379.53;5116900;28;19912;-34
2022/04/23 10:37:16;;;;;;;;;;;;;;;16.90;56.75;100389.19;5116968;28;19912;-34
2022/04/23 10:39:42;;;;;;;;;;;;;;;17.04;56.87;100383.91;5117304;28;19912;-35
2022/04/23 10:42:11;;;;;;;;;;;;;;;16.79;56.91;100395.00;5117657;28;19915;-35
2022/04/23 10:44:36;;;;;;;;;;;;;;;17.04;57.11;100381.19;5117148;28;20314;-35
2022/04/23 10:47:10;;;;;;;;;;;;;;;17.14;55.91;100378.38;5117557;28;19915;-34
2022/04/23 10:49:35;;;;;;;;;;;;;;;17.29;56.16;100384.81;5117374;28;19911;-35
2022/04/23 10:52:00;;;;;;;;;;;;;;;17.45;55.73;100373.44;5117833;28;19976;-35
2022/04/23 10:54:41;;;;;;;;;;;;;;;17.64;55.80;100373.53;5117116;28;19912;-35
2022/04/23 10:57:07;;;;;;;;;;;;;;;17.55;55.11;100367.06;5116882;28;19911;-35
2022/04/23 10:59:34;;;;;;;;;;;;;;;17.50;54.97;100378.03;5115530;28;20356;-35
2022/04/23 11:02:06;;;;;;;;;;;;;;;17.35;55.04;100386.38;5116626;28;20383;-35
2022/04/23 11:04:31;;;;;;;;;;;;;;;17.06;55.02;100378.97;5116899;28;19912;-35
2022/04/23 11:12:30;;;;;;;;;;;;;;;17.70;54.98;100375.09;5117262;28;19918;-35
2022/04/23 11:14:56;;;;;;;;;;;;;;;17.64;53.94;100364.50;5116616;27;19912;-35
2022/04/23 11:17:25;;;;;;;;;;;;;;;17.63;54.15;100366.44;5116000;28;19916;-35
2022/04/23 11:19:52;;;;;;;;;;;;;;;17.74;53.66;100372.63;5116482;28;19919;-35
2022/04/23 11:22:18;;;;;;;;;;;;;;;17.98;54.50;100369.91;5115868;28;19984;-35
2022/04/23 11:24:45;;;;;;;;;;;;;;;18.26;54.43;100360.00;5116243;28;20355;-35
2022/04/23 11:27:22;;;;;;;;;;;;;;;18.60;53.12;100369.94;5116401;28;20275;-35
2022/04/23 11:29:50;;;;;;;;;;;;;;;18.39;51.71;100361.97;5116536;28;19919;-35
2022/04/23 11:32:23;;;;;;;;;;;;;;;18.30;51.70;100369.25;5116956;28;19959;-35
2022/04/23 11:34:55;;;;;;;;;;;;;;;18.42;51.91;100352.38;5116261;28;19912;-35
2022/04/23 11:37:30;;;;;;;;;;;;;;;18.40;50.97;100355.41;5116944;28;19954;-35
2022/04/23 11:40:08;;;;;;;;;;;;;;;18.43;52.13;100349.34;5116582;28;20356;-35
2022/04/23 11:42:40;;;;;;;;;;;;;;;18.23;51.64;100344.94;5114952;28;19911;-35
2022/04/23 11:45:06;;;;;;;;;;;;;;;18.20;52.89;100353.78;5116150;28;19912;-35
2022/04/23 11:47:33;;;;;;;;;;;;;;;18.13;51.82;100353.31;5116050;27;19918;-35
2022/04/23 11:50:15;;;;;;;;;;;;;;;18.11;51.05;100343.78;5115687;28;19912;-35
2022/04/23 11:52:41;;;;;;;;;;;;;;;18.27;50.89;100343.25;5116062;28;20076;-35
2022/04/23 11:55:08;;;;;;;;;;;;;;;18.46;51.99;100343.28;5115879;28;19911;-39
2022/04/23 11:57:34;;;;;;;;;;;;;;;18.56;51.04;100336.84;5115895;27;19919;-35
2022/04/23 12:00:00;;;;;;;;;;;;;;;18.71;52.32;100336.63;5115782;28;19916;-35
2022/04/23 12:02:26;;;;;;;;;;;;;;;18.82;52.11;100341.97;5116250;28;20381;-35
2022/04/23 12:04:53;;;;;;;;;;;;;;;18.92;49.99;100341.78;5115693;28;20012;-35
2022/04/23 12:07:18;;;;;;;;;;;;;;;18.90;49.71;100341.28;5116135;28;19941;-35
2022/04/23 12:09:52;;;;;;;;;;;;;;;18.89;50.08;100334.19;5115839;28;19944;-35
2022/04/23 12:12:21;;;;;;;;;;;;;;;19.04;50.66;100331.19;5115385;28;20003;-35
2022/04/23 12:14:47;;;;;;;;;;;;;;;18.88;49.45;100327.06;5115606;28;19911;-35
2022/04/23 12:17:29;;;;;;;;;;;;;;;19.10;50.75;100335.47;5116243;28;19987;-35
2022/04/23 12:19:55;;;;;;;;;;;;;;;18.99;49.22;100328.53;5115371;28;19912;-35
2022/04/23 12:22:25;;;;;;;;;;;;;;;18.86;49.56;100326.56;5115011;28;19923;-35
2022/04/23 12:24:50;;;;;;;;;;;;;;;18.75;50.84;100325.91;5115653;28;19919;-35
2022/04/23 12:27:17;;;;;;;;;;;;;;;18.76;49.37;100325.59;5115847;28;20344;-35
2022/04/23 12:40:58;;;;;;;;;;;;;;;19.23;48.62;100303.75;5115281;28;19918;-34
2022/04/23 12:43:31;;;;;;;;;;;;;;;19.20;48.95;100298.84;5114516;28;19911;-34
2022/04/23 12:46:04;;;;;;;;;;;;;;;19.26;48.13;100301.19;5114931;27;19918;-34
2022/04/23 12:48:29;;;;;;;;;;;;;;;19.22;48.41;100293.88;5115015;28;19955;-34
2022/04/23 12:51:06;;;;;;;;;;;;;;;19.01;48.65;100298.91;5114792;28;19912;-34
2022/04/23 12:53:34;;;;;;;;;;;;;;;19.00;48.89;100297.28;5114653;28;19918;-34
2022/04/23 12:56:04;;;;;;;;;;;;;;;18.91;48.98;100296.34;5115031;28;20367;-34
2022/04/23 12:58:31;;;;;;;;;;;;;;;18.81;48.29;100299.25;5114615;28;19969;-34
2022/04/23 13:00:56;;;;;;;;;;;;;;;19.06;48.57;100285.09;5115063;28;19918;-35
2022/04/23 13:05:52;;;;;;;;;;;;;;;19.30;47.76;100277.53;5114838;28;20006;-35
2022/04/23 13:11:24;;;;;;;;;;;;;;;19.09;48.21;100272.75;5115103;28;19918;-35
2022/04/23 13:13:46;;;;;;;;;;;;;;;19.25;48.03;100280.38;5114574;28;19970;-34